createdAt,value
2022-12-23T00:01:16.094Z,16.50
2022-12-23T00:04:04.198Z,17.33
2022-12-23T00:06:52.240Z,18.40
2022-12-23T00:09:42.568Z,16.95
2022-12-23T00:12:49.526Z,16.98
2022-12-23T00:15:37.441Z,18.70
2022-12-23T00:18:25.263Z,16.95
2022-12-23T00:21:17.470Z,18.02
2022-12-23T00:24:05.684Z,17.65
2022-12-23T00:26:53.511Z,16.83
2022-12-23T00:29:41.563Z,18.33
2022-12-23T00:32:29.433Z,16.08
2022-12-23T00:35:17.384Z,16.67
2022-12-23T00:38:05.408Z,16.13
2022-12-23T00:41:11.810Z,17.80
2022-12-23T00:43:59.837Z,15.60
2022-12-23T00:46:47.824Z,13.80
2022-12-23T00:49:43.050Z,12.65
2022-12-23T00:52:31.205Z,14.15
2022-12-23T00:55:19.667Z,14.05
2022-12-23T00:58:07.490Z,14.32
2022-12-23T01:01:13.741Z,13.40
2022-12-23T01:04:21.245Z,14.77
2022-12-23T01:07:09.534Z,14.60
2022-12-23T01:09:57.845Z,17.73
2022-12-23T01:12:46.184Z,15.02
2022-12-23T01:15:34.203Z,19.50
2022-12-23T01:18:25.725Z,19.05
2022-12-23T01:21:14.138Z,19.63
2022-12-23T01:24:01.975Z,16.30
2022-12-23T01:26:49.768Z,14.88
2022-12-23T01:29:37.650Z,15.73
2022-12-23T01:32:25.494Z,16.65
2022-12-23T01:35:13.310Z,16.45
2022-12-23T01:38:01.406Z,18.73
2022-12-23T01:40:49.207Z,16.67
2022-12-23T01:43:51.752Z,19.05
2022-12-23T01:46:39.856Z,23.50
2022-12-23T01:49:27.683Z,19.90
2022-12-23T01:52:15.598Z,24.65
2022-12-23T01:55:03.994Z,25.50
2022-12-23T01:57:55.417Z,21.98
2022-12-23T02:01:02.402Z,18.85
2022-12-23T02:03:53.909Z,19.80
2022-12-23T02:07:03.595Z,15.48
2022-12-23T02:09:51.383Z,13.85
2022-12-23T02:12:57.056Z,12.48
2022-12-23T02:16:20.127Z,10.93
2022-12-23T02:19:53.525Z,12.07
2022-12-23T02:23:22.966Z,13.10
2022-12-23T02:26:41.661Z,11.32
2022-12-23T02:30:26.112Z,12.32
2022-12-23T02:33:31.996Z,12.48
2022-12-23T02:36:51.558Z,15.68
2022-12-23T02:39:58.997Z,14.85
2022-12-23T02:43:16.061Z,13.77
2022-12-23T02:46:30.556Z,15.02
2022-12-23T02:49:30.374Z,16.10
2022-12-23T02:52:22.287Z,15.35
2022-12-23T02:55:17.789Z,15.55
2022-12-23T02:58:13.099Z,15.05
2022-12-23T03:01:02.227Z,13.13
2022-12-23T03:03:51.573Z,12.95
2022-12-23T03:06:46.660Z,13.15
2022-12-23T03:10:05.223Z,14.10
2022-12-23T03:13:27.827Z,16.48
2022-12-23T03:16:33.657Z,12.98
2022-12-23T03:19:50.260Z,14.60
2022-12-23T03:23:12.562Z,13.70
2022-12-23T03:26:31.191Z,12.68
2022-12-23T03:29:48.597Z,14.35
2022-12-23T03:32:45.870Z,14.57
2022-12-23T03:35:50.478Z,13.45
2022-12-23T03:38:41.415Z,13.45
2022-12-23T03:41:36.044Z,13.77
2022-12-23T03:45:10.802Z,13.48
2022-12-23T03:48:02.620Z,12.43
2022-12-23T03:50:57.067Z,11.85
2022-12-23T03:54:00.437Z,9.23
2022-12-23T03:56:56.864Z,9.35
2022-12-23T03:59:50.543Z,9.25
2022-12-23T04:03:03.106Z,8.50
2022-12-23T04:05:59.844Z,8.57
2022-12-23T04:08:49.539Z,9.65
2022-12-23T04:11:37.819Z,12.00
2022-12-23T04:14:25.696Z,13.68
2022-12-23T04:17:13.891Z,15.38
2022-12-23T04:20:02.052Z,16.52
2022-12-23T04:22:50.116Z,17.23
2022-12-23T04:25:38.049Z,16.52
2022-12-23T04:28:25.873Z,18.75
2022-12-23T04:31:13.965Z,17.90
2022-12-23T04:34:01.911Z,19.88
2022-12-23T04:36:49.680Z,21.92
2022-12-23T04:39:37.607Z,26.38
2022-12-23T04:42:25.903Z,35.03
2022-12-23T04:45:13.846Z,40.70
2022-12-23T04:48:01.737Z,37.53
2022-12-23T04:50:49.790Z,49.35
2022-12-23T04:53:38.202Z,52.22
2022-12-23T04:56:29.149Z,42.55
2022-12-23T04:59:23.786Z,45.90
2022-12-23T05:02:12.183Z,36.30
2022-12-23T05:05:00.650Z,35.90
2022-12-23T05:07:52.677Z,35.80
2022-12-23T05:10:41.973Z,33.00
2022-12-23T05:13:29.784Z,34.47
2022-12-23T05:16:22.517Z,33.80
2022-12-23T05:19:11.173Z,34.67
2022-12-23T05:21:58.947Z,33.47
2022-12-23T05:24:47.205Z,31.75
2022-12-23T05:27:38.068Z,31.42
2022-12-23T05:30:29.059Z,28.52
2022-12-23T05:33:17.084Z,28.90
2022-12-23T05:36:06.411Z,25.00
2022-12-23T05:38:57.961Z,24.67
2022-12-23T05:41:46.398Z,26.65
2022-12-23T05:44:34.538Z,26.42
2022-12-23T05:47:22.458Z,31.48
2022-12-23T05:50:13.845Z,30.08
2022-12-23T05:53:01.735Z,28.30
2022-12-23T05:55:49.771Z,28.63
2022-12-23T05:58:37.997Z,27.50
2022-12-23T06:01:26.082Z,24.90
2022-12-23T06:04:14.212Z,26.42
2022-12-23T06:07:02.206Z,23.00
2022-12-23T06:09:51.331Z,23.45
2022-12-23T06:12:39.613Z,21.33
2022-12-23T06:15:27.881Z,19.80
2022-12-23T06:18:15.856Z,21.90
2022-12-23T06:21:04.334Z,19.83
2022-12-23T06:23:55.336Z,18.92
2022-12-23T06:26:43.769Z,17.88
2022-12-23T06:29:32.329Z,17.38
2022-12-23T06:32:21.011Z,15.35
2022-12-23T06:35:10.162Z,14.98
2022-12-23T06:37:58.466Z,13.52
2022-12-23T06:40:46.545Z,13.15
2022-12-23T06:43:34.641Z,13.23
2022-12-23T06:46:22.887Z,12.98
2022-12-23T06:49:13.665Z,11.98
2022-12-23T06:52:01.953Z,10.70
2022-12-23T06:54:50.510Z,11.25
2022-12-23T06:57:38.643Z,12.25
2022-12-23T07:00:29.769Z,13.25
2022-12-23T07:03:18.302Z,13.00
2022-12-23T07:06:06.702Z,12.35
2022-12-23T07:08:58.272Z,12.30
2022-12-23T07:11:49.370Z,12.55
2022-12-23T07:14:37.471Z,12.27
2022-12-23T07:17:25.451Z,10.93
2022-12-23T07:20:14.900Z,14.45
2022-12-23T07:23:05.090Z,13.50
2022-12-23T07:25:53.123Z,13.70
2022-12-23T07:28:43.398Z,13.32
2022-12-23T07:31:31.949Z,13.35
2022-12-23T07:34:19.921Z,14.88
2022-12-23T07:37:08.045Z,14.20
2022-12-23T07:39:55.994Z,16.50
2022-12-23T07:42:46.043Z,16.42
2022-12-23T07:45:35.239Z,15.85
2022-12-23T07:48:23.229Z,16.52
2022-12-23T07:51:11.480Z,17.20
2022-12-23T07:54:02.723Z,18.73
2022-12-23T07:56:51.040Z,19.20
2022-12-23T07:59:41.591Z,18.40
2022-12-23T08:02:34.130Z,19.73
2022-12-23T08:05:23.002Z,19.35
2022-12-23T08:08:11.220Z,18.27
2022-12-23T08:11:02.613Z,18.75
2022-12-23T08:13:52.868Z,17.73
2022-12-23T08:16:43.996Z,22.08
2022-12-23T08:19:32.614Z,17.70
2022-12-23T08:22:23.742Z,19.55
2022-12-23T08:25:11.917Z,21.60
2022-12-23T08:28:00.200Z,18.85
2022-12-23T08:30:48.345Z,17.70
2022-12-23T08:33:40.944Z,17.05
2022-12-23T08:36:46.181Z,17.98
2022-12-23T08:39:34.387Z,14.07
2022-12-23T08:42:25.203Z,15.05
2022-12-23T08:45:28.539Z,17.98
2022-12-23T08:48:23.170Z,16.67
2022-12-23T08:51:21.449Z,15.40
2022-12-23T08:54:16.257Z,15.07
2022-12-23T08:57:43.173Z,13.38
2022-12-23T09:00:47.369Z,11.95
2022-12-23T09:03:45.215Z,12.05
2022-12-23T09:06:45.964Z,14.57
2022-12-23T09:09:42.236Z,16.58
2022-12-23T09:12:39.067Z,16.25
2022-12-23T09:19:18.268Z,13.55
2022-12-23T09:22:53.412Z,11.70
2022-12-23T09:25:50.564Z,13.70
2022-12-23T09:28:50.184Z,14.45
2022-12-23T09:31:49.883Z,14.55
2022-12-23T09:34:38.847Z,12.70
2022-12-23T09:37:48.294Z,13.45
2022-12-23T09:41:00.780Z,12.93
2022-12-23T09:44:43.273Z,13.52
2022-12-23T09:47:48.657Z,9.80
2022-12-23T09:50:43.184Z,14.38
2022-12-23T09:54:30.686Z,13.98
2022-12-23T09:58:55.618Z,18.60
2022-12-23T10:06:07.024Z,16.38
2022-12-23T10:09:23.714Z,14.60
2022-12-23T10:12:46.920Z,15.93
2022-12-23T10:16:04.904Z,15.77
2022-12-23T10:19:10.376Z,17.00
2022-12-23T10:22:47.010Z,18.15
2022-12-23T10:25:49.769Z,15.40
2022-12-23T10:33:20.564Z,15.35
2022-12-23T10:37:19.878Z,14.35
2022-12-23T10:40:38.615Z,18.42
2022-12-23T10:43:54.527Z,15.93
2022-12-23T10:47:25.635Z,13.80
2022-12-23T10:50:57.954Z,13.13
2022-12-23T10:54:14.242Z,11.25
2022-12-23T10:57:29.549Z,12.13
2022-12-23T11:00:27.725Z,12.13
2022-12-23T11:03:29.193Z,13.80
2022-12-23T11:06:36.590Z,12.30
2022-12-23T11:12:49.898Z,14.85
2022-12-23T11:15:46.834Z,15.90
2022-12-23T11:18:55.772Z,18.38
2022-12-23T11:22:00.627Z,17.35
2022-12-23T11:24:50.956Z,18.08
2022-12-23T11:27:44.363Z,20.42
2022-12-23T11:30:53.488Z,16.57
2022-12-23T11:33:59.521Z,17.63
2022-12-23T11:37:03.664Z,16.77
2022-12-23T11:39:55.682Z,19.88
2022-12-23T11:42:43.768Z,17.08
2022-12-23T11:45:37.227Z,20.38
2022-12-23T11:48:31.520Z,22.15
2022-12-23T11:51:25.983Z,20.30
2022-12-23T11:54:20.451Z,17.65
2022-12-23T11:57:17.851Z,20.55
2022-12-23T12:00:17.405Z,17.48
2022-12-23T12:03:07.694Z,19.20
2022-12-23T12:06:03.954Z,17.13
2022-12-23T12:08:54.382Z,23.95
2022-12-23T12:11:58.381Z,23.35
2022-12-23T12:14:46.553Z,19.10
2022-12-23T12:17:45.367Z,20.85
2022-12-23T12:20:53.257Z,21.17
2022-12-23T12:24:19.540Z,19.85
2022-12-23T12:27:10.740Z,19.13
2022-12-23T12:30:08.096Z,24.13
2022-12-23T12:33:38.468Z,30.48
2022-12-23T12:36:49.724Z,19.55
2022-12-23T12:40:07.563Z,18.00
2022-12-23T12:43:21.106Z,27.02
2022-12-23T12:46:35.157Z,21.02
2022-12-23T12:50:00.961Z,23.80
2022-12-23T12:52:52.880Z,26.13
2022-12-23T12:55:46.377Z,29.52
2022-12-23T12:58:34.376Z,23.27
2022-12-23T13:01:46.267Z,26.73
2022-12-23T13:05:17.417Z,27.08
2022-12-23T13:08:43.380Z,30.35
2022-12-23T13:11:55.483Z,26.85
2022-12-23T13:15:37.998Z,20.80
2022-12-23T13:19:13.207Z,18.33
2022-12-23T13:22:14.937Z,23.58
2022-12-23T13:25:24.036Z,27.35
2022-12-23T13:28:32.652Z,26.25
2022-12-23T13:31:20.424Z,28.52
2022-12-23T13:34:46.594Z,29.77
2022-12-23T13:37:52.968Z,18.70
2022-12-23T13:41:04.573Z,18.55
2022-12-23T13:44:02.896Z,19.67
2022-12-23T13:47:24.477Z,29.95
2022-12-23T13:50:27.104Z,28.27
2022-12-23T13:53:48.366Z,18.52
2022-12-23T13:56:47.245Z,16.85
2022-12-23T13:59:44.892Z,21.83
2022-12-23T14:02:35.958Z,16.83
2022-12-23T14:05:50.893Z,15.10
2022-12-23T14:08:47.611Z,21.80
2022-12-23T14:11:36.888Z,19.52
2022-12-23T14:14:25.907Z,22.92
2022-12-23T14:17:30.650Z,20.35
2022-12-23T14:21:12.219Z,22.35
2022-12-23T14:24:35.638Z,19.40
2022-12-23T14:27:42.946Z,17.08
2022-12-23T14:30:45.752Z,17.35
2022-12-23T14:33:38.350Z,25.27
2022-12-23T14:36:27.086Z,23.52
2022-12-23T14:39:15.024Z,23.27
2022-12-23T14:42:06.778Z,20.58
2022-12-23T14:45:30.557Z,21.02
2022-12-23T14:49:22.549Z,20.95
2022-12-23T14:52:39.349Z,16.77
2022-12-23T14:55:31.562Z,15.15
2022-12-23T14:58:36.881Z,15.00
2022-12-23T15:02:00.497Z,13.10
2022-12-23T15:04:55.065Z,13.52
2022-12-23T15:07:46.659Z,10.60
2022-12-23T15:10:36.809Z,9.73
2022-12-23T15:13:29.318Z,12.80
2022-12-23T15:16:19.093Z,12.63
2022-12-23T15:19:24.878Z,20.35
2022-12-23T15:22:22.146Z,11.65
2022-12-23T15:25:38.655Z,11.20
2022-12-23T15:31:33.607Z,10.68
2022-12-23T15:34:27.797Z,9.13
2022-12-23T15:40:32.008Z,7.72
2022-12-23T15:46:29.704Z,7.70
2022-12-23T15:49:21.820Z,6.78
2022-12-23T15:52:18.082Z,6.05
2022-12-23T15:55:19.854Z,7.22
2022-12-23T15:58:08.495Z,7.30
2022-12-23T16:00:59.336Z,8.00
2022-12-23T16:03:57.603Z,10.20
2022-12-23T16:06:50.875Z,11.93
2022-12-23T16:09:38.867Z,12.73
2022-12-23T16:12:28.048Z,13.52
2022-12-23T16:15:32.330Z,14.60
2022-12-23T16:18:25.742Z,17.60
2022-12-23T16:21:14.900Z,20.42
2022-12-23T16:24:08.785Z,18.73
2022-12-23T16:26:56.829Z,20.33
2022-12-23T16:29:48.558Z,24.35
2022-12-23T16:32:48.831Z,21.35
2022-12-23T16:35:42.785Z,22.40
2022-12-23T16:38:31.145Z,21.48
2022-12-23T16:41:20.177Z,21.90
2022-12-23T16:44:08.327Z,24.27
2022-12-23T16:46:56.390Z,21.92
2022-12-23T16:49:44.326Z,24.73
2022-12-23T16:52:32.641Z,24.95
2022-12-23T16:55:20.936Z,11.32
2022-12-23T16:58:08.873Z,20.38
2022-12-23T17:00:57.107Z,24.48
2022-12-23T17:03:44.981Z,15.50
2022-12-23T17:06:33.862Z,12.85
2022-12-23T17:09:21.874Z,10.88
2022-12-23T17:12:10.524Z,13.75
2022-12-23T17:14:58.822Z,18.63
2022-12-23T17:17:49.025Z,22.48
2022-12-23T17:20:36.953Z,22.92
2022-12-23T17:23:32.915Z,23.95
2022-12-23T17:26:20.800Z,23.05
2022-12-23T17:29:11.875Z,22.90
2022-12-23T17:31:59.873Z,22.50
2022-12-23T17:34:48.665Z,25.20
2022-12-23T17:37:40.889Z,23.70
2022-12-23T17:40:29.965Z,25.17
2022-12-23T17:43:19.027Z,26.48
2022-12-23T17:46:13.469Z,23.52
2022-12-23T17:49:01.423Z,19.88
2022-12-23T17:51:49.445Z,19.75
2022-12-23T17:54:37.299Z,18.80
2022-12-23T17:57:27.209Z,20.27
2022-12-23T18:00:22.668Z,18.88
2022-12-23T18:03:24.103Z,17.88
2022-12-23T18:06:21.731Z,20.67
2022-12-23T18:09:10.235Z,19.60
2022-12-23T18:11:58.869Z,20.15
2022-12-23T18:14:47.115Z,18.50
2022-12-23T18:17:35.259Z,18.60
2022-12-23T18:20:24.148Z,15.45
2022-12-23T18:23:17.367Z,13.85
2022-12-23T18:26:07.102Z,10.50
2022-12-23T18:29:01.064Z,11.73
2022-12-23T18:31:52.247Z,8.93
2022-12-23T18:34:40.599Z,8.45
2022-12-23T18:37:29.122Z,7.82
2022-12-23T18:40:17.843Z,7.53
2022-12-23T18:43:06.566Z,7.30
2022-12-23T18:45:55.662Z,7.10
2022-12-23T18:48:43.979Z,7.32
2022-12-23T18:51:37.806Z,6.30
2022-12-23T18:54:25.735Z,6.68
2022-12-23T18:57:13.957Z,6.70
2022-12-23T19:00:02.236Z,6.80
2022-12-23T19:02:53.066Z,6.05
2022-12-23T19:05:43.301Z,6.95
2022-12-23T19:08:31.587Z,5.97
2022-12-23T19:11:20.905Z,6.10
2022-12-23T19:14:11.272Z,5.68
2022-12-23T19:17:00.362Z,6.07
2022-12-23T19:19:48.359Z,5.25
2022-12-23T19:22:39.217Z,4.03
2022-12-23T19:25:30.209Z,4.78
2022-12-23T19:28:18.479Z,3.88
2022-12-23T19:31:11.736Z,3.70
2022-12-23T19:34:00.614Z,4.53
2022-12-23T19:36:48.775Z,3.58
2022-12-23T19:39:59.547Z,4.85
2022-12-23T19:42:50.548Z,4.15
2022-12-23T19:46:12.933Z,3.83
2022-12-23T19:48:59.791Z,4.35
2022-12-23T19:51:48.627Z,4.85
2022-12-23T19:55:06.817Z,3.83
2022-12-23T19:57:54.853Z,3.42
2022-12-23T20:00:43.095Z,4.13
2022-12-23T20:03:31.370Z,2.70
2022-12-23T20:06:31.195Z,3.58
2022-12-23T20:10:23.058Z,3.20
2022-12-23T20:12:33.658Z,3.10
2022-12-23T20:15:22.413Z,3.50
2022-12-23T20:18:10.502Z,3.25
2022-12-23T20:21:04.648Z,4.03
2022-12-23T20:27:14.815Z,5.45
2022-12-23T20:34:19.501Z,4.43
2022-12-23T20:37:20.195Z,3.83
2022-12-23T20:40:36.669Z,3.90
2022-12-23T20:43:38.916Z,4.03
2022-12-23T20:46:27.227Z,4.65
2022-12-23T20:49:20.448Z,3.97
2022-12-23T20:52:15.933Z,4.28
2022-12-23T20:55:12.277Z,4.35
2022-12-23T20:58:23.535Z,3.50
2022-12-23T21:01:18.226Z,4.38
2022-12-23T21:04:21.419Z,3.10
2022-12-23T21:07:14.062Z,3.00
2022-12-23T21:10:15.743Z,3.53
2022-12-23T21:13:20.460Z,4.38
2022-12-23T21:16:59.562Z,3.70
2022-12-23T21:19:58.317Z,4.00
2022-12-23T21:22:48.835Z,3.33
2022-12-23T21:25:37.465Z,2.40
2022-12-23T21:28:34.471Z,2.53
2022-12-23T21:31:36.731Z,3.05
2022-12-23T21:35:06.164Z,2.90
2022-12-23T21:38:32.441Z,1.98
2022-12-23T21:45:51.141Z,3.20
2022-12-23T21:55:51.093Z,2.85
